sensor_id;sensor_type;location;lat;lon;timestamp;P1;durP1;ratioP1;P2;durP2;ratioP2
20997;SDS011;10657;51.276;6.390;2023-10-31T00:00:52;7.05;;;2.72;;
20997;SDS011;10657;51.276;6.390;2023-10-31T00:03:19;6.13;;;2.75;;
20997;SDS011;10657;51.276;6.390;2023-10-31T00:05:46;5.03;;;2.58;;
20997;SDS011;10657;51.276;6.390;2023-10-31T00:08:12;6.97;;;2.50;;
20997;SDS011;10657;51.276;6.390;2023-10-31T00:10:39;6.55;;;3.10;;
20997;SDS011;10657;51.276;6.390;2023-10-31T00:13:10;5.93;;;2.65;;
20997;SDS011;10657;51.276;6.390;2023-10-31T00:15:37;5.50;;;3.05;;
20997;SDS011;10657;51.276;6.390;2023-10-31T00:18:04;8.75;;;3.70;;
20997;SDS011;10657;51.276;6.390;2023-10-31T00:20:31;5.93;;;3.28;;
20997;SDS011;10657;51.276;6.390;2023-10-31T00:22:57;6.43;;;3.38;;
20997;SDS011;10657;51.276;6.390;2023-10-31T00:25:24;7.95;;;3.53;;
20997;SDS011;10657;51.276;6.390;2023-10-31T00:27:51;6.53;;;3.40;;
20997;SDS011;10657;51.276;6.390;2023-10-31T00:30:17;7.00;;;3.25;;
20997;SDS011;10657;51.276;6.390;2023-10-31T00:32:44;6.25;;;3.25;;
20997;SDS011;10657;51.276;6.390;2023-10-31T00:35:11;6.72;;;3.00;;
20997;SDS011;10657;51.276;6.390;2023-10-31T00:37:38;6.35;;;3.35;;
20997;SDS011;10657;51.276;6.390;2023-10-31T00:40:08;6.45;;;3.10;;
20997;SDS011;10657;51.276;6.390;2023-10-31T00:42:40;7.35;;;3.17;;
20997;SDS011;10657;51.276;6.390;2023-10-31T00:45:08;6.30;;;3.28;;
20997;SDS011;10657;51.276;6.390;2023-10-31T00:47:35;8.00;;;3.25;;
20997;SDS011;10657;51.276;6.390;2023-10-31T00:50:02;6.55;;;2.45;;
20997;SDS011;10657;51.276;6.390;2023-10-31T00:52:29;6.65;;;2.50;;
20997;SDS011;10657;51.276;6.390;2023-10-31T00:54:56;6.38;;;2.38;;
20997;SDS011;10657;51.276;6.390;2023-10-31T00:57:23;8.65;;;3.17;;
20997;SDS011;10657;51.276;6.390;2023-10-31T00:59:49;6.05;;;2.53;;
20997;SDS011;10657;51.276;6.390;2023-10-31T01:02:16;6.63;;;2.60;;
20997;SDS011;10657;51.276;6.390;2023-10-31T01:04:43;8.02;;;3.13;;
20997;SDS011;10657;51.276;6.390;2023-10-31T01:07:09;8.48;;;3.00;;
20997;SDS011;10657;51.276;6.390;2023-10-31T01:09:38;7.90;;;2.47;;
20997;SDS011;10657;51.276;6.390;2023-10-31T01:12:05;6.47;;;2.58;;
20997;SDS011;10657;51.276;6.390;2023-10-31T01:14:32;7.97;;;3.25;;
20997;SDS011;10657;51.276;6.390;2023-10-31T01:16:58;8.23;;;2.88;;
20997;SDS011;10657;51.276;6.390;2023-10-31T01:19:25;9.55;;;3.35;;
20997;SDS011;10657;51.276;6.390;2023-10-31T01:21:52;7.45;;;3.00;;
20997;SDS011;10657;51.276;6.390;2023-10-31T01:24:18;9.90;;;3.15;;
20997;SDS011;10657;51.276;6.390;2023-10-31T01:26:45;8.40;;;3.20;;
20997;SDS011;10657;51.276;6.390;2023-10-31T01:29:12;8.90;;;3.40;;
20997;SDS011;10657;51.276;6.390;2023-10-31T01:31:40;9.75;;;3.95;;
20997;SDS011;10657;51.276;6.390;2023-10-31T01:34:24;8.00;;;3.17;;
20997;SDS011;10657;51.276;6.390;2023-10-31T01:36:51;9.13;;;3.80;;
20997;SDS011;10657;51.276;6.390;2023-10-31T01:39:18;8.65;;;3.35;;
20997;SDS011;10657;51.276;6.390;2023-10-31T01:41:44;8.93;;;3.60;;
20997;SDS011;10657;51.276;6.390;2023-10-31T01:44:11;12.82;;;4.60;;
20997;SDS011;10657;51.276;6.390;2023-10-31T01:46:38;9.82;;;5.07;;
20997;SDS011;10657;51.276;6.390;2023-10-31T01:49:05;10.10;;;5.20;;
20997;SDS011;10657;51.276;6.390;2023-10-31T01:51:31;10.77;;;4.20;;
20997;SDS011;10657;51.276;6.390;2023-10-31T01:53:58;9.00;;;4.78;;
20997;SDS011;10657;51.276;6.390;2023-10-31T01:56:25;8.57;;;4.65;;
20997;SDS011;10657;51.276;6.390;2023-10-31T01:58:52;9.27;;;4.30;;
20997;SDS011;10657;51.276;6.390;2023-10-31T02:01:20;8.30;;;3.67;;
20997;SDS011;10657;51.276;6.390;2023-10-31T02:03:47;8.15;;;3.35;;
20997;SDS011;10657;51.276;6.390;2023-10-31T02:06:14;7.43;;;3.35;;
20997;SDS011;10657;51.276;6.390;2023-10-31T02:08:41;8.90;;;4.13;;
20997;SDS011;10657;51.276;6.390;2023-10-31T02:11:08;11.32;;;4.50;;
20997;SDS011;10657;51.276;6.390;2023-10-31T02:13:36;11.93;;;3.35;;
20997;SDS011;10657;51.276;6.390;2023-10-31T02:16:04;10.38;;;4.65;;
20997;SDS011;10657;51.276;6.390;2023-10-31T02:18:31;9.30;;;4.47;;
20997;SDS011;10657;51.276;6.390;2023-10-31T02:20:58;10.00;;;4.68;;
20997;SDS011;10657;51.276;6.390;2023-10-31T02:23:25;10.95;;;4.55;;
20997;SDS011;10657;51.276;6.390;2023-10-31T02:25:52;10.68;;;5.32;;
20997;SDS011;10657;51.276;6.390;2023-10-31T02:28:19;13.10;;;5.18;;
20997;SDS011;10657;51.276;6.390;2023-10-31T02:30:45;9.40;;;5.15;;
20997;SDS011;10657;51.276;6.390;2023-10-31T02:33:12;9.60;;;5.00;;
20997;SDS011;10657;51.276;6.390;2023-10-31T02:35:38;10.35;;;4.47;;
20997;SDS011;10657;51.276;6.390;2023-10-31T02:38:05;9.27;;;4.43;;
20997;SDS011;10657;51.276;6.390;2023-10-31T02:40:32;8.90;;;4.55;;
20997;SDS011;10657;51.276;6.390;2023-10-31T02:42:59;10.52;;;6.05;;
20997;SDS011;10657;51.276;6.390;2023-10-31T02:45:25;9.63;;;4.88;;
20997;SDS011;10657;51.276;6.390;2023-10-31T02:47:52;10.27;;;4.13;;
20997;SDS011;10657;51.276;6.390;2023-10-31T02:50:19;9.88;;;5.22;;
20997;SDS011;10657;51.276;6.390;2023-10-31T02:52:46;9.10;;;4.57;;
20997;SDS011;10657;51.276;6.390;2023-10-31T02:55:12;10.55;;;5.20;;
20997;SDS011;10657;51.276;6.390;2023-10-31T02:57:39;11.52;;;5.80;;
20997;SDS011;10657;51.276;6.390;2023-10-31T03:00:06;11.32;;;5.63;;
20997;SDS011;10657;51.276;6.390;2023-10-31T03:02:33;10.88;;;5.90;;
20997;SDS011;10657;51.276;6.390;2023-10-31T03:05:00;13.98;;;5.55;;
20997;SDS011;10657;51.276;6.390;2023-10-31T03:07:27;10.93;;;5.15;;
20997;SDS011;10657;51.276;6.390;2023-10-31T03:09:53;13.32;;;5.13;;
20997;SDS011;10657;51.276;6.390;2023-10-31T03:12:20;11.75;;;6.28;;
20997;SDS011;10657;51.276;6.390;2023-10-31T03:14:47;13.00;;;5.90;;
20997;SDS011;10657;51.276;6.390;2023-10-31T03:17:13;12.45;;;6.32;;
20997;SDS011;10657;51.276;6.390;2023-10-31T03:19:40;9.55;;;4.93;;
20997;SDS011;10657;51.276;6.390;2023-10-31T03:22:07;12.82;;;5.40;;
20997;SDS011;10657;51.276;6.390;2023-10-31T03:24:33;10.93;;;4.57;;
20997;SDS011;10657;51.276;6.390;2023-10-31T03:27:00;9.80;;;5.05;;
20997;SDS011;10657;51.276;6.390;2023-10-31T03:29:27;10.40;;;5.43;;
20997;SDS011;10657;51.276;6.390;2023-10-31T03:31:54;10.75;;;5.30;;
20997;SDS011;10657;51.276;6.390;2023-10-31T03:34:20;9.77;;;4.78;;
20997;SDS011;10657;51.276;6.390;2023-10-31T03:36:47;10.82;;;5.30;;
20997;SDS011;10657;51.276;6.390;2023-10-31T03:39:14;10.18;;;4.35;;
20997;SDS011;10657;51.276;6.390;2023-10-31T03:41:40;9.15;;;4.95;;
20997;SDS011;10657;51.276;6.390;2023-10-31T03:44:08;13.85;;;5.20;;
20997;SDS011;10657;51.276;6.390;2023-10-31T03:46:35;12.60;;;5.10;;
20997;SDS011;10657;51.276;6.390;2023-10-31T03:49:02;9.98;;;4.88;;
20997;SDS011;10657;51.276;6.390;2023-10-31T03:51:28;8.77;;;5.20;;
20997;SDS011;10657;51.276;6.390;2023-10-31T03:53:56;8.63;;;4.03;;
20997;SDS011;10657;51.276;6.390;2023-10-31T03:56:22;9.00;;;4.50;;
20997;SDS011;10657;51.276;6.390;2023-10-31T03:58:49;9.27;;;4.60;;
20997;SDS011;10657;51.276;6.390;2023-10-31T04:01:16;9.27;;;5.00;;
20997;SDS011;10657;51.276;6.390;2023-10-31T04:03:43;10.35;;;5.32;;
20997;SDS011;10657;51.276;6.390;2023-10-31T04:06:10;10.63;;;4.68;;
20997;SDS011;10657;51.276;6.390;2023-10-31T04:08:37;12.65;;;5.28;;
20997;SDS011;10657;51.276;6.390;2023-10-31T04:11:03;8.93;;;5.18;;
20997;SDS011;10657;51.276;6.390;2023-10-31T04:13:30;9.80;;;5.43;;
20997;SDS011;10657;51.276;6.390;2023-10-31T04:15:57;8.65;;;4.60;;
20997;SDS011;10657;51.276;6.390;2023-10-31T04:18:24;9.30;;;5.90;;
20997;SDS011;10657;51.276;6.390;2023-10-31T04:20:50;10.13;;;5.32;;
20997;SDS011;10657;51.276;6.390;2023-10-31T04:23:17;9.13;;;4.43;;
20997;SDS011;10657;51.276;6.390;2023-10-31T04:25:44;8.88;;;5.13;;
20997;SDS011;10657;51.276;6.390;2023-10-31T04:28:10;9.10;;;4.82;;
20997;SDS011;10657;51.276;6.390;2023-10-31T04:30:39;9.95;;;4.70;;
20997;SDS011;10657;51.276;6.390;2023-10-31T04:33:06;9.57;;;5.30;;
20997;SDS011;10657;51.276;6.390;2023-10-31T04:35:32;10.48;;;4.78;;
20997;SDS011;10657;51.276;6.390;2023-10-31T04:37:59;9.30;;;4.82;;
20997;SDS011;10657;51.276;6.390;2023-10-31T04:40:26;12.00;;;5.00;;
20997;SDS011;10657;51.276;6.390;2023-10-31T04:42:53;9.32;;;5.20;;
20997;SDS011;10657;51.276;6.390;2023-10-31T04:45:20;7.60;;;4.00;;
20997;SDS011;10657;51.276;6.390;2023-10-31T04:47:47;9.50;;;5.15;;
20997;SDS011;10657;51.276;6.390;2023-10-31T04:50:14;8.25;;;4.32;;
20997;SDS011;10657;51.276;6.390;2023-10-31T04:52:41;8.50;;;4.95;;
20997;SDS011;10657;51.276;6.390;2023-10-31T04:55:08;9.40;;;4.68;;
20997;SDS011;10657;51.276;6.390;2023-10-31T04:57:35;8.07;;;4.13;;
20997;SDS011;10657;51.276;6.390;2023-10-31T05:00:01;8.60;;;4.55;;
20997;SDS011;10657;51.276;6.390;2023-10-31T05:02:31;8.75;;;4.20;;
20997;SDS011;10657;51.276;6.390;2023-10-31T05:04:58;8.88;;;4.10;;
20997;SDS011;10657;51.276;6.390;2023-10-31T05:07:25;8.48;;;4.72;;
20997;SDS011;10657;51.276;6.390;2023-10-31T05:09:52;9.18;;;4.43;;
20997;SDS011;10657;51.276;6.390;2023-10-31T05:12:18;8.55;;;4.53;;
20997;SDS011;10657;51.276;6.390;2023-10-31T05:14:45;8.82;;;4.45;;
20997;SDS011;10657;51.276;6.390;2023-10-31T05:17:12;8.38;;;4.45;;
20997;SDS011;10657;51.276;6.390;2023-10-31T05:19:39;8.85;;;4.00;;
20997;SDS011;10657;51.276;6.390;2023-10-31T05:22:05;7.20;;;4.22;;
20997;SDS011;10657;51.276;6.390;2023-10-31T05:24:32;9.00;;;4.18;;
20997;SDS011;10657;51.276;6.390;2023-10-31T05:26:59;9.50;;;4.70;;
20997;SDS011;10657;51.276;6.390;2023-10-31T05:29:25;8.10;;;4.00;;
20997;SDS011;10657;51.276;6.390;2023-10-31T05:31:52;8.48;;;4.03;;
20997;SDS011;10657;51.276;6.390;2023-10-31T05:34:19;7.53;;;3.80;;
20997;SDS011;10657;51.276;6.390;2023-10-31T05:36:45;8.48;;;3.70;;
20997;SDS011;10657;51.276;6.390;2023-10-31T05:39:12;6.93;;;3.70;;
20997;SDS011;10657;51.276;6.390;2023-10-31T05:41:39;8.07;;;3.70;;
20997;SDS011;10657;51.276;6.390;2023-10-31T05:44:06;6.65;;;3.50;;
20997;SDS011;10657;51.276;6.390;2023-10-31T05:46:37;7.53;;;3.83;;
20997;SDS011;10657;51.276;6.390;2023-10-31T05:49:07;8.85;;;4.05;;
20997;SDS011;10657;51.276;6.390;2023-10-31T05:51:33;7.25;;;3.80;;
20997;SDS011;10657;51.276;6.390;2023-10-31T05:54:01;7.32;;;4.25;;
20997;SDS011;10657;51.276;6.390;2023-10-31T05:56:28;9.88;;;5.05;;
20997;SDS011;10657;51.276;6.390;2023-10-31T05:58:55;8.95;;;4.88;;
20997;SDS011;10657;51.276;6.390;2023-10-31T06:01:22;10.32;;;5.40;;
20997;SDS011;10657;51.276;6.390;2023-10-31T06:03:48;11.27;;;5.53;;
20997;SDS011;10657;51.276;6.390;2023-10-31T06:06:15;9.32;;;5.35;;
20997;SDS011;10657;51.276;6.390;2023-10-31T06:08:42;10.02;;;6.00;;
20997;SDS011;10657;51.276;6.390;2023-10-31T06:11:09;9.57;;;6.18;;
20997;SDS011;10657;51.276;6.390;2023-10-31T06:13:38;11.48;;;6.75;;
20997;SDS011;10657;51.276;6.390;2023-10-31T06:16:05;8.90;;;6.03;;
20997;SDS011;10657;51.276;6.390;2023-10-31T06:18:33;9.73;;;6.55;;
20997;SDS011;10657;51.276;6.390;2023-10-31T06:21:01;9.95;;;6.55;;
20997;SDS011;10657;51.276;6.390;2023-10-31T06:23:27;10.60;;;6.68;;
20997;SDS011;10657;51.276;6.390;2023-10-31T06:25:57;9.77;;;6.30;;
20997;SDS011;10657;51.276;6.390;2023-10-31T06:28:24;11.40;;;6.28;;
20997;SDS011;10657;51.276;6.390;2023-10-31T06:30:51;9.60;;;6.40;;
20997;SDS011;10657;51.276;6.390;2023-10-31T06:33:18;9.57;;;6.70;;
20997;SDS011;10657;51.276;6.390;2023-10-31T06:35:44;9.77;;;5.90;;
20997;SDS011;10657;51.276;6.390;2023-10-31T06:38:11;10.45;;;6.18;;
20997;SDS011;10657;51.276;6.390;2023-10-31T06:40:38;10.93;;;6.47;;
20997;SDS011;10657;51.276;6.390;2023-10-31T06:43:04;9.13;;;5.72;;
20997;SDS011;10657;51.276;6.390;2023-10-31T06:45:31;9.82;;;5.63;;
20997;SDS011;10657;51.276;6.390;2023-10-31T06:47:58;11.35;;;5.90;;
20997;SDS011;10657;51.276;6.390;2023-10-31T06:50:25;9.20;;;5.85;;
20997;SDS011;10657;51.276;6.390;2023-10-31T06:52:51;10.95;;;5.53;;
20997;SDS011;10657;51.276;6.390;2023-10-31T06:55:18;8.35;;;3.95;;
20997;SDS011;10657;51.276;6.390;2023-10-31T06:57:45;10.70;;;5.82;;
20997;SDS011;10657;51.276;6.390;2023-10-31T07:00:12;10.18;;;6.15;;
20997;SDS011;10657;51.276;6.390;2023-10-31T07:02:39;10.48;;;6.07;;
20997;SDS011;10657;51.276;6.390;2023-10-31T07:05:06;11.88;;;6.18;;
20997;SDS011;10657;51.276;6.390;2023-10-31T07:07:33;10.43;;;6.72;;
20997;SDS011;10657;51.276;6.390;2023-10-31T07:09:59;10.38;;;7.40;;
20997;SDS011;10657;51.276;6.390;2023-10-31T07:12:26;11.40;;;7.38;;
20997;SDS011;10657;51.276;6.390;2023-10-31T07:14:53;12.93;;;6.82;;
20997;SDS011;10657;51.276;6.390;2023-10-31T07:17:20;10.77;;;6.53;;
20997;SDS011;10657;51.276;6.390;2023-10-31T07:19:47;12.32;;;6.85;;
20997;SDS011;10657;51.276;6.390;2023-10-31T07:22:14;8.93;;;4.03;;
20997;SDS011;10657;51.276;6.390;2023-10-31T07:24:41;11.70;;;5.55;;
20997;SDS011;10657;51.276;6.390;2023-10-31T07:27:09;10.32;;;5.78;;
20997;SDS011;10657;51.276;6.390;2023-10-31T07:29:38;9.60;;;5.13;;
20997;SDS011;10657;51.276;6.390;2023-10-31T07:32:07;9.52;;;5.13;;
20997;SDS011;10657;51.276;6.390;2023-10-31T07:34:36;9.05;;;4.40;;
20997;SDS011;10657;51.276;6.390;2023-10-31T07:37:06;8.13;;;4.45;;
20997;SDS011;10657;51.276;6.390;2023-10-31T07:39:33;8.63;;;4.40;;
20997;SDS011;10657;51.276;6.390;2023-10-31T07:41:59;8.73;;;4.30;;
20997;SDS011;10657;51.276;6.390;2023-10-31T07:44:26;9.13;;;4.13;;
20997;SDS011;10657;51.276;6.390;2023-10-31T07:46:53;8.63;;;4.22;;
20997;SDS011;10657;51.276;6.390;2023-10-31T07:49:20;8.30;;;4.78;;
20997;SDS011;10657;51.276;6.390;2023-10-31T07:51:47;9.45;;;4.50;;
20997;SDS011;10657;51.276;6.390;2023-10-31T07:54:14;6.90;;;4.20;;
20997;SDS011;10657;51.276;6.390;2023-10-31T07:56:42;7.40;;;4.47;;
20997;SDS011;10657;51.276;6.390;2023-10-31T07:59:09;7.55;;;4.40;;
20997;SDS011;10657;51.276;6.390;2023-10-31T08:01:36;8.80;;;5.03;;
20997;SDS011;10657;51.276;6.390;2023-10-31T08:04:03;8.13;;;4.43;;
20997;SDS011;10657;51.276;6.390;2023-10-31T08:06:29;8.60;;;5.00;;
20997;SDS011;10657;51.276;6.390;2023-10-31T08:08:56;10.23;;;4.45;;
20997;SDS011;10657;51.276;6.390;2023-10-31T08:11:23;8.20;;;4.65;;
20997;SDS011;10657;51.276;6.390;2023-10-31T08:13:50;8.02;;;4.38;;
20997;SDS011;10657;51.276;6.390;2023-10-31T08:16:17;8.55;;;4.75;;
20997;SDS011;10657;51.276;6.390;2023-10-31T08:18:45;8.05;;;4.38;;
20997;SDS011;10657;51.276;6.390;2023-10-31T08:21:12;8.20;;;4.93;;
20997;SDS011;10657;51.276;6.390;2023-10-31T08:23:39;9.32;;;4.60;;
20997;SDS011;10657;51.276;6.390;2023-10-31T08:26:06;8.15;;;4.65;;
20997;SDS011;10657;51.276;6.390;2023-10-31T08:28:33;9.23;;;4.32;;
20997;SDS011;10657;51.276;6.390;2023-10-31T08:31:00;9.55;;;4.28;;
20997;SDS011;10657;51.276;6.390;2023-10-31T08:33:26;12.40;;;4.80;;
20997;SDS011;10657;51.276;6.390;2023-10-31T08:35:53;8.77;;;4.55;;
20997;SDS011;10657;51.276;6.390;2023-10-31T08:38:20;8.40;;;5.35;;
20997;SDS011;10657;51.276;6.390;2023-10-31T08:40:57;11.70;;;4.25;;
20997;SDS011;10657;51.276;6.390;2023-10-31T08:43:25;10.82;;;5.70;;
20997;SDS011;10657;51.276;6.390;2023-10-31T08:45:52;9.23;;;5.18;;
20997;SDS011;10657;51.276;6.390;2023-10-31T08:48:19;8.85;;;4.75;;
20997;SDS011;10657;51.276;6.390;2023-10-31T08:50:45;9.65;;;4.90;;
20997;SDS011;10657;51.276;6.390;2023-10-31T08:53:12;10.27;;;5.07;;
20997;SDS011;10657;51.276;6.390;2023-10-31T08:55:39;10.65;;;4.82;;
20997;SDS011;10657;51.276;6.390;2023-10-31T08:58:13;11.25;;;5.43;;
20997;SDS011;10657;51.276;6.390;2023-10-31T09:00:40;12.25;;;5.20;;
20997;SDS011;10657;51.276;6.390;2023-10-31T09:03:07;8.35;;;4.68;;
20997;SDS011;10657;51.276;6.390;2023-10-31T09:05:35;12.43;;;5.20;;
20997;SDS011;10657;51.276;6.390;2023-10-31T09:08:01;8.55;;;4.53;;
20997;SDS011;10657;51.276;6.390;2023-10-31T09:10:28;9.60;;;5.10;;
20997;SDS011;10657;51.276;6.390;2023-10-31T09:12:55;8.93;;;5.15;;
20997;SDS011;10657;51.276;6.390;2023-10-31T09:15:22;8.05;;;4.82;;
20997;SDS011;10657;51.276;6.390;2023-10-31T09:17:48;8.93;;;4.20;;
20997;SDS011;10657;51.276;6.390;2023-10-31T09:20:16;8.85;;;4.65;;
20997;SDS011;10657;51.276;6.390;2023-10-31T09:22:43;9.98;;;4.88;;
20997;SDS011;10657;51.276;6.390;2023-10-31T09:25:10;9.48;;;5.38;;
20997;SDS011;10657;51.276;6.390;2023-10-31T09:27:40;8.88;;;4.65;;
20997;SDS011;10657;51.276;6.390;2023-10-31T09:30:07;9.15;;;4.50;;
20997;SDS011;10657;51.276;6.390;2023-10-31T09:32:34;9.77;;;4.50;;
20997;SDS011;10657;51.276;6.390;2023-10-31T09:35:01;9.18;;;4.40;;
20997;SDS011;10657;51.276;6.390;2023-10-31T09:37:28;7.78;;;4.53;;
20997;SDS011;10657;51.276;6.390;2023-10-31T09:39:55;10.52;;;5.22;;
20997;SDS011;10657;51.276;6.390;2023-10-31T09:42:22;11.10;;;5.78;;
20997;SDS011;10657;51.276;6.390;2023-10-31T09:44:48;8.95;;;3.95;;
20997;SDS011;10657;51.276;6.390;2023-10-31T09:47:15;9.52;;;4.78;;
20997;SDS011;10657;51.276;6.390;2023-10-31T09:49:43;11.27;;;5.10;;
20997;SDS011;10657;51.276;6.390;2023-10-31T09:52:10;10.60;;;5.22;;
20997;SDS011;10657;51.276;6.390;2023-10-31T09:54:37;11.00;;;5.97;;
20997;SDS011;10657;51.276;6.390;2023-10-31T09:57:06;8.48;;;4.78;;
20997;SDS011;10657;51.276;6.390;2023-10-31T09:59:33;9.30;;;5.18;;
20997;SDS011;10657;51.276;6.390;2023-10-31T10:02:00;8.98;;;4.38;;
20997;SDS011;10657;51.276;6.390;2023-10-31T10:04:26;11.65;;;5.03;;
20997;SDS011;10657;51.276;6.390;2023-10-31T10:06:59;8.88;;;5.07;;
20997;SDS011;10657;51.276;6.390;2023-10-31T10:09:27;9.05;;;4.63;;
20997;SDS011;10657;51.276;6.390;2023-10-31T10:11:55;7.00;;;4.22;;
20997;SDS011;10657;51.276;6.390;2023-10-31T10:14:23;11.05;;;4.32;;
20997;SDS011;10657;51.276;6.390;2023-10-31T10:16:50;9.65;;;4.28;;
20997;SDS011;10657;51.276;6.390;2023-10-31T10:19:18;8.23;;;3.55;;
20997;SDS011;10657;51.276;6.390;2023-10-31T10:21:47;9.77;;;4.05;;
20997;SDS011;10657;51.276;6.390;2023-10-31T10:24:21;10.80;;;4.25;;
20997;SDS011;10657;51.276;6.390;2023-10-31T10:26:49;11.05;;;3.50;;
20997;SDS011;10657;51.276;6.390;2023-10-31T10:29:15;7.18;;;3.42;;
20997;SDS011;10657;51.276;6.390;2023-10-31T10:31:42;8.98;;;3.33;;
20997;SDS011;10657;51.276;6.390;2023-10-31T10:34:11;9.57;;;3.45;;
20997;SDS011;10657;51.276;6.390;2023-10-31T10:36:41;5.68;;;2.17;;
20997;SDS011;10657;51.276;6.390;2023-10-31T10:39:19;7.38;;;2.90;;
20997;SDS011;10657;51.276;6.390;2023-10-31T10:41:51;7.03;;;2.80;;
20997;SDS011;10657;51.276;6.390;2023-10-31T10:44:40;6.30;;;3.00;;
20997;SDS011;10657;51.276;6.390;2023-10-31T10:47:12;7.07;;;2.83;;
20997;SDS011;10657;51.276;6.390;2023-10-31T10:49:40;6.95;;;2.30;;
20997;SDS011;10657;51.276;6.390;2023-10-31T10:52:22;10.18;;;2.75;;
20997;SDS011;10657;51.276;6.390;2023-10-31T10:55:00;5.93;;;2.65;;
20997;SDS011;10657;51.276;6.390;2023-10-31T11:00:20;8.20;;;2.65;;
20997;SDS011;10657;51.276;6.390;2023-10-31T11:02:55;7.45;;;2.75;;
20997;SDS011;10657;51.276;6.390;2023-10-31T11:05:24;4.70;;;1.98;;
20997;SDS011;10657;51.276;6.390;2023-10-31T11:07:51;6.72;;;2.65;;
20997;SDS011;10657;51.276;6.390;2023-10-31T11:10:18;8.07;;;2.88;;
20997;SDS011;10657;51.276;6.390;2023-10-31T11:12:45;7.97;;;2.85;;
20997;SDS011;10657;51.276;6.390;2023-10-31T11:15:13;8.43;;;3.15;;
20997;SDS011;10657;51.276;6.390;2023-10-31T11:17:42;6.15;;;2.83;;
20997;SDS011;10657;51.276;6.390;2023-10-31T11:20:13;6.18;;;2.40;;
20997;SDS011;10657;51.276;6.390;2023-10-31T11:22:43;6.03;;;2.13;;
20997;SDS011;10657;51.276;6.390;2023-10-31T11:25:14;7.65;;;2.40;;
20997;SDS011;10657;51.276;6.390;2023-10-31T11:27:56;8.40;;;2.30;;
20997;SDS011;10657;51.276;6.390;2023-10-31T11:30:36;8.13;;;2.75;;
20997;SDS011;10657;51.276;6.390;2023-10-31T11:33:02;6.47;;;1.85;;
20997;SDS011;10657;51.276;6.390;2023-10-31T11:35:35;7.47;;;2.35;;
20997;SDS011;10657;51.276;6.390;2023-10-31T11:38:05;5.00;;;2.00;;
20997;SDS011;10657;51.276;6.390;2023-10-31T11:40:34;8.75;;;2.30;;
20997;SDS011;10657;51.276;6.390;2023-10-31T11:43:21;5.15;;;1.90;;
20997;SDS011;10657;51.276;6.390;2023-10-31T11:45:48;6.53;;;2.00;;
20997;SDS011;10657;51.276;6.390;2023-10-31T11:48:15;4.35;;;1.70;;
20997;SDS011;10657;51.276;6.390;2023-10-31T11:50:42;6.60;;;2.45;;
20997;SDS011;10657;51.276;6.390;2023-10-31T11:55:40;7.07;;;2.53;;
20997;SDS011;10657;51.276;6.390;2023-10-31T12:00:48;7.60;;;2.17;;
20997;SDS011;10657;51.276;6.390;2023-10-31T12:03:17;6.22;;;2.33;;
20997;SDS011;10657;51.276;6.390;2023-10-31T12:05:51;8.50;;;2.38;;
20997;SDS011;10657;51.276;6.390;2023-10-31T12:08:28;8.45;;;1.88;;
20997;SDS011;10657;51.276;6.390;2023-10-31T12:11:07;5.38;;;2.00;;
20997;SDS011;10657;51.276;6.390;2023-10-31T12:13:38;6.82;;;2.10;;
20997;SDS011;10657;51.276;6.390;2023-10-31T12:16:17;4.85;;;2.00;;
20997;SDS011;10657;51.276;6.390;2023-10-31T12:18:44;6.78;;;1.98;;
20997;SDS011;10657;51.276;6.390;2023-10-31T12:21:11;6.20;;;1.70;;
20997;SDS011;10657;51.276;6.390;2023-10-31T12:23:41;4.68;;;1.73;;
20997;SDS011;10657;51.276;6.390;2023-10-31T12:26:07;5.35;;;1.88;;
20997;SDS011;10657;51.276;6.390;2023-10-31T12:28:36;8.02;;;2.28;;
20997;SDS011;10657;51.276;6.390;2023-10-31T12:31:04;8.00;;;2.75;;
20997;SDS011;10657;51.276;6.390;2023-10-31T12:33:31;6.00;;;1.85;;
20997;SDS011;10657;51.276;6.390;2023-10-31T12:35:58;5.05;;;1.88;;
20997;SDS011;10657;51.276;6.390;2023-10-31T12:38:26;5.60;;;1.60;;
20997;SDS011;10657;51.276;6.390;2023-10-31T12:40:54;7.32;;;1.77;;
20997;SDS011;10657;51.276;6.390;2023-10-31T12:43:23;8.73;;;2.17;;
20997;SDS011;10657;51.276;6.390;2023-10-31T12:45:49;6.90;;;2.38;;
20997;SDS011;10657;51.276;6.390;2023-10-31T12:48:16;6.57;;;2.28;;
20997;SDS011;10657;51.276;6.390;2023-10-31T12:50:49;5.38;;;2.10;;
20997;SDS011;10657;51.276;6.390;2023-10-31T12:53:31;7.97;;;2.20;;
20997;SDS011;10657;51.276;6.390;2023-10-31T12:55:59;5.10;;;2.03;;
20997;SDS011;10657;51.276;6.390;2023-10-31T12:58:25;6.95;;;2.10;;
20997;SDS011;10657;51.276;6.390;2023-10-31T13:00:52;7.43;;;2.38;;
20997;SDS011;10657;51.276;6.390;2023-10-31T13:03:21;8.80;;;2.40;;
20997;SDS011;10657;51.276;6.390;2023-10-31T13:05:49;9.30;;;2.40;;
20997;SDS011;10657;51.276;6.390;2023-10-31T13:08:15;5.68;;;2.05;;
20997;SDS011;10657;51.276;6.390;2023-10-31T13:10:43;5.32;;;1.75;;
20997;SDS011;10657;51.276;6.390;2023-10-31T13:13:10;5.28;;;2.03;;
20997;SDS011;10657;51.276;6.390;2023-10-31T13:15:38;6.30;;;2.10;;
20997;SDS011;10657;51.276;6.390;2023-10-31T13:18:05;7.60;;;2.15;;
20997;SDS011;10657;51.276;6.390;2023-10-31T13:20:34;7.20;;;2.33;;
20997;SDS011;10657;51.276;6.390;2023-10-31T13:23:01;6.57;;;2.15;;
20997;SDS011;10657;51.276;6.390;2023-10-31T13:25:29;7.00;;;1.98;;
20997;SDS011;10657;51.276;6.390;2023-10-31T13:27:57;4.65;;;1.80;;
20997;SDS011;10657;51.276;6.390;2023-10-31T13:30:24;4.95;;;2.00;;
20997;SDS011;10657;51.276;6.390;2023-10-31T13:32:51;6.47;;;1.50;;
20997;SDS011;10657;51.276;6.390;2023-10-31T13:35:19;6.00;;;1.88;;
20997;SDS011;10657;51.276;6.390;2023-10-31T13:37:46;6.85;;;1.90;;
20997;SDS011;10657;51.276;6.390;2023-10-31T13:40:13;5.05;;;2.00;;
20997;SDS011;10657;51.276;6.390;2023-10-31T13:42:40;5.68;;;2.00;;
20997;SDS011;10657;51.276;6.390;2023-10-31T13:45:07;6.88;;;2.00;;
20997;SDS011;10657;51.276;6.390;2023-10-31T13:47:34;6.75;;;1.90;;
20997;SDS011;10657;51.276;6.390;2023-10-31T13:50:01;8.48;;;2.30;;
20997;SDS011;10657;51.276;6.390;2023-10-31T13:52:28;6.05;;;1.92;;
20997;SDS011;10657;51.276;6.390;2023-10-31T13:54:55;10.10;;;3.78;;
20997;SDS011;10657;51.276;6.390;2023-10-31T13:57:22;9.10;;;2.45;;
20997;SDS011;10657;51.276;6.390;2023-10-31T13:59:49;5.30;;;2.17;;
20997;SDS011;10657;51.276;6.390;2023-10-31T14:02:16;6.15;;;1.70;;
20997;SDS011;10657;51.276;6.390;2023-10-31T14:04:44;7.28;;;2.00;;
20997;SDS011;10657;51.276;6.390;2023-10-31T14:07:13;10.65;;;1.95;;
20997;SDS011;10657;51.276;6.390;2023-10-31T14:09:46;7.55;;;1.70;;
20997;SDS011;10657;51.276;6.390;2023-10-31T14:12:14;8.93;;;2.05;;
20997;SDS011;10657;51.276;6.390;2023-10-31T14:14:41;6.05;;;1.38;;
20997;SDS011;10657;51.276;6.390;2023-10-31T14:17:07;5.13;;;1.60;;
20997;SDS011;10657;51.276;6.390;2023-10-31T14:19:34;5.63;;;1.60;;
20997;SDS011;10657;51.276;6.390;2023-10-31T14:22:01;8.45;;;1.60;;
20997;SDS011;10657;51.276;6.390;2023-10-31T14:24:28;4.78;;;1.50;;
20997;SDS011;10657;51.276;6.390;2023-10-31T14:26:54;5.32;;;1.50;;
20997;SDS011;10657;51.276;6.390;2023-10-31T14:29:21;7.80;;;1.77;;
20997;SDS011;10657;51.276;6.390;2023-10-31T14:31:49;5.97;;;1.70;;
20997;SDS011;10657;51.276;6.390;2023-10-31T14:34:15;8.13;;;1.42;;
20997;SDS011;10657;51.276;6.390;2023-10-31T14:36:42;8.45;;;1.58;;
20997;SDS011;10657;51.276;6.390;2023-10-31T14:39:09;7.38;;;1.52;;
20997;SDS011;10657;51.276;6.390;2023-10-31T14:41:37;4.45;;;1.48;;
20997;SDS011;10657;51.276;6.390;2023-10-31T14:44:04;7.03;;;1.75;;
20997;SDS011;10657;51.276;6.390;2023-10-31T14:46:32;9.68;;;1.75;;
20997;SDS011;10657;51.276;6.390;2023-10-31T14:48:59;7.32;;;1.95;;
20997;SDS011;10657;51.276;6.390;2023-10-31T14:51:25;6.07;;;1.55;;
20997;SDS011;10657;51.276;6.390;2023-10-31T14:53:52;6.78;;;1.60;;
20997;SDS011;10657;51.276;6.390;2023-10-31T14:56:19;7.95;;;1.83;;